sensor_id;sensor_type;location;lat;lon;timestamp;pressure;altitude;pressure_sealevel;temperature;humidity
3590;BME280;1809;48.470;9.226;2022-08-19T00:02:02;96483.38;;;18.27;100.00
3590;BME280;1809;48.470;9.226;2022-08-19T00:04:34;96481.78;;;18.26;100.00
3590;BME280;1809;48.470;9.226;2022-08-19T00:07:03;96474.56;;;18.31;100.00
3590;BME280;1809;48.470;9.226;2022-08-19T00:09:29;96475.25;;;18.27;100.00
3590;BME280;1809;48.470;9.226;2022-08-19T00:11:56;96476.38;;;18.26;100.00
3590;BME280;1809;48.470;9.226;2022-08-19T00:14:23;96467.75;;;18.21;100.00
3590;BME280;1809;48.470;9.226;2022-08-19T00:16:49;96460.38;;;18.21;100.00
3590;BME280;1809;48.470;9.226;2022-08-19T00:19:16;96457.25;;;18.19;100.00
3590;BME280;1809;48.470;9.226;2022-08-19T00:21:42;96457.06;;;18.12;100.00
3590;BME280;1809;48.470;9.226;2022-08-19T00:24:10;96451.91;;;18.07;100.00
3590;BME280;1809;48.470;9.226;2022-08-19T00:26:36;96443.78;;;18.07;100.00
3590;BME280;1809;48.470;9.226;2022-08-19T00:29:03;96444.50;;;18.04;100.00
3590;BME280;1809;48.470;9.226;2022-08-19T00:31:29;96442.91;;;18.03;100.00
3590;BME280;1809;48.470;9.226;2022-08-19T00:33:56;96444.50;;;18.04;100.00
3590;BME280;1809;48.470;9.226;2022-08-19T00:36:21;96449.13;;;18.04;100.00
3590;BME280;1809;48.470;9.226;2022-08-19T00:38:47;96454.94;;;18.06;100.00
3590;BME280;1809;48.470;9.226;2022-08-19T00:41:14;96460.03;;;18.07;100.00
3590;BME280;1809;48.470;9.226;2022-08-19T00:43:40;96463.16;;;18.09;100.00
3590;BME280;1809;48.470;9.226;2022-08-19T00:46:06;96465.09;;;18.09;100.00
3590;BME280;1809;48.470;9.226;2022-08-19T00:48:33;96470.06;;;18.07;100.00
3590;BME280;1809;48.470;9.226;2022-08-19T00:50:59;96471.19;;;18.06;100.00
3590;BME280;1809;48.470;9.226;2022-08-19T00:53:27;96471.66;;;18.08;100.00
3590;BME280;1809;48.470;9.226;2022-08-19T00:55:55;96459.25;;;18.07;100.00
3590;BME280;1809;48.470;9.226;2022-08-19T00:58:24;96464.75;;;18.10;100.00
3590;BME280;1809;48.470;9.226;2022-08-19T01:00:51;96464.47;;;18.15;100.00
3590;BME280;1809;48.470;9.226;2022-08-19T01:03:19;96457.06;;;18.12;100.00
3590;BME280;1809;48.470;9.226;2022-08-19T01:05:45;96459.34;;;18.10;100.00
3590;BME280;1809;48.470;9.226;2022-08-19T01:08:14;96453.91;;;18.10;100.00
3590;BME280;1809;48.470;9.226;2022-08-19T01:10:46;96444.69;;;18.11;100.00
3590;BME280;1809;48.470;9.226;2022-08-19T01:13:15;96444.22;;;18.09;100.00
3590;BME280;1809;48.470;9.226;2022-08-19T01:15:46;96438.81;;;18.09;100.00
3590;BME280;1809;48.470;9.226;2022-08-19T01:18:14;96442.41;;;18.13;100.00
3590;BME280;1809;48.470;9.226;2022-08-19T01:20:41;96444.22;;;18.09;100.00
3590;BME280;1809;48.470;9.226;2022-08-19T01:23:07;96445.78;;;17.95;100.00
3590;BME280;1809;48.470;9.226;2022-08-19T01:25:39;96444.56;;;17.92;100.00
3590;BME280;1809;48.470;9.226;2022-08-19T01:28:06;96445.88;;;17.98;100.00
3590;BME280;1809;48.470;9.226;2022-08-19T01:30:34;96441.34;;;18.02;100.00
3590;BME280;1809;48.470;9.226;2022-08-19T01:33:00;96448.84;;;17.93;100.00
3590;BME280;1809;48.470;9.226;2022-08-19T01:35:29;96453.38;;;17.89;100.00
3590;BME280;1809;48.470;9.226;2022-08-19T01:38:01;96448.28;;;17.88;100.00
3590;BME280;1809;48.470;9.226;2022-08-19T01:40:32;96450.56;;;17.86;100.00
3590;BME280;1809;48.470;9.226;2022-08-19T01:42:58;96451.00;;;17.88;100.00
3590;BME280;1809;48.470;9.226;2022-08-19T01:45:26;96452.38;;;17.82;100.00
3590;BME280;1809;48.470;9.226;2022-08-19T01:47:54;96451.38;;;17.86;100.00
3590;BME280;1809;48.470;9.226;2022-08-19T01:50:19;96447.50;;;17.87;100.00
3590;BME280;1809;48.470;9.226;2022-08-19T01:52:45;96448.41;;;17.91;100.00
3590;BME280;1809;48.470;9.226;2022-08-19T01:55:14;96452.69;;;17.92;100.00
3590;BME280;1809;48.470;9.226;2022-08-19T01:57:43;96446.38;;;17.88;100.00
3590;BME280;1809;48.470;9.226;2022-08-19T02:00:12;96445.69;;;17.91;100.00
3590;BME280;1809;48.470;9.226;2022-08-19T02:02:39;96439.50;;;17.91;100.00
3590;BME280;1809;48.470;9.226;2022-08-19T02:05:05;96440.47;;;17.98;100.00
3590;BME280;1809;48.470;9.226;2022-08-19T02:07:32;96440.03;;;17.96;100.00
3590;BME280;1809;48.470;9.226;2022-08-19T02:09:57;96442.81;;;18.00;100.00
3590;BME280;1809;48.470;9.226;2022-08-19T02:12:23;96454.25;;;17.93;100.00
3590;BME280;1809;48.470;9.226;2022-08-19T02:14:48;96453.13;;;17.94;100.00
3590;BME280;1809;48.470;9.226;2022-08-19T02:17:14;96450.94;;;18.00;100.00
3590;BME280;1809;48.470;9.226;2022-08-19T02:19:39;96449.28;;;17.95;100.00
3590;BME280;1809;48.470;9.226;2022-08-19T02:22:06;96450.41;;;17.94;100.00
3590;BME280;1809;48.470;9.226;2022-08-19T02:24:31;96440.53;;;17.86;100.00
3590;BME280;1809;48.470;9.226;2022-08-19T02:26:57;96437.94;;;17.90;100.00
3590;BME280;1809;48.470;9.226;2022-08-19T02:29:23;96434.16;;;17.94;100.00
3590;BME280;1809;48.470;9.226;2022-08-19T02:31:49;96432.16;;;17.91;100.00
3590;BME280;1809;48.470;9.226;2022-08-19T02:34:15;96425.00;;;17.83;100.00
3590;BME280;1809;48.470;9.226;2022-08-19T02:36:40;96419.94;;;17.82;100.00
3590;BME280;1809;48.470;9.226;2022-08-19T02:39:06;96429.72;;;17.86;100.00
3590;BME280;1809;48.470;9.226;2022-08-19T02:41:32;96426.41;;;17.93;100.00
3590;BME280;1809;48.470;9.226;2022-08-19T02:43:59;96427.88;;;17.90;100.00
3590;BME280;1809;48.470;9.226;2022-08-19T02:46:30;96425.16;;;17.90;100.00
3590;BME280;1809;48.470;9.226;2022-08-19T02:48:59;96422.47;;;17.90;100.00
3590;BME280;1809;48.470;9.226;2022-08-19T02:51:39;96428.56;;;17.87;100.00
3590;BME280;1809;48.470;9.226;2022-08-19T02:54:06;96437.84;;;17.86;100.00
3590;BME280;1809;48.470;9.226;2022-08-19T02:56:35;96434.25;;;17.82;100.00
3590;BME280;1809;48.470;9.226;2022-08-19T02:59:01;96440.09;;;17.84;100.00
3590;BME280;1809;48.470;9.226;2022-08-19T03:01:31;96448.66;;;17.86;100.00
3590;BME280;1809;48.470;9.226;2022-08-19T03:03:59;96444.81;;;17.87;100.00
3590;BME280;1809;48.470;9.226;2022-08-19T03:06:25;96448.28;;;17.88;100.00
3590;BME280;1809;48.470;9.226;2022-08-19T03:08:52;96440.75;;;17.93;100.00
3590;BME280;1809;48.470;9.226;2022-08-19T03:11:22;96443.69;;;17.88;100.00
3590;BME280;1809;48.470;9.226;2022-08-19T03:13:48;96436.00;;;17.90;100.00
3590;BME280;1809;48.470;9.226;2022-08-19T03:16:15;96437.75;;;17.83;100.00
3590;BME280;1809;48.470;9.226;2022-08-19T03:18:41;96432.06;;;17.88;100.00
3590;BME280;1809;48.470;9.226;2022-08-19T03:21:07;96438.34;;;17.76;100.00
3590;BME280;1809;48.470;9.226;2022-08-19T03:23:33;96440.78;;;17.81;100.00
3590;BME280;1809;48.470;9.226;2022-08-19T03:25:58;96429.69;;;17.70;100.00
3590;BME280;1809;48.470;9.226;2022-08-19T03:28:24;96439.13;;;17.77;100.00
3590;BME280;1809;48.470;9.226;2022-08-19T03:31:03;96433.63;;;17.73;100.00
3590;BME280;1809;48.470;9.226;2022-08-19T03:33:29;96434.50;;;17.77;100.00
3590;BME280;1809;48.470;9.226;2022-08-19T03:36:10;96439.22;;;17.80;100.00
3590;BME280;1809;48.470;9.226;2022-08-19T03:38:39;96431.44;;;17.79;100.00
3590;BME280;1809;48.470;9.226;2022-08-19T03:41:12;96436.75;;;17.75;100.00
3590;BME280;1809;48.470;9.226;2022-08-19T03:43:39;96433.53;;;17.69;100.00
3590;BME280;1809;48.470;9.226;2022-08-19T03:46:10;96440.84;;;17.69;100.00
3590;BME280;1809;48.470;9.226;2022-08-19T03:48:37;96444.09;;;17.75;100.00
3590;BME280;1809;48.470;9.226;2022-08-19T03:51:04;96444.44;;;17.73;100.00
3590;BME280;1809;48.470;9.226;2022-08-19T03:53:32;96451.88;;;17.76;100.00
3590;BME280;1809;48.470;9.226;2022-08-19T03:55:58;96450.63;;;17.73;100.00
3590;BME280;1809;48.470;9.226;2022-08-19T03:58:28;96447.78;;;17.82;100.00
3590;BME280;1809;48.470;9.226;2022-08-19T04:00:55;96444.81;;;17.87;100.00
3590;BME280;1809;48.470;9.226;2022-08-19T04:03:22;96451.78;;;17.88;100.00
3590;BME280;1809;48.470;9.226;2022-08-19T04:05:47;96456.41;;;17.88;100.00
3590;BME280;1809;48.470;9.226;2022-08-19T04:08:14;96451.09;;;17.91;100.00
3590;BME280;1809;48.470;9.226;2022-08-19T04:10:40;96452.22;;;17.90;100.00
3590;BME280;1809;48.470;9.226;2022-08-19T04:13:06;96447.88;;;17.86;100.00
3590;BME280;1809;48.470;9.226;2022-08-19T04:15:33;96455.19;;;17.85;100.00
3590;BME280;1809;48.470;9.226;2022-08-19T04:18:06;96443.94;;;17.83;100.00
3590;BME280;1809;48.470;9.226;2022-08-19T04:20:37;96446.19;;;17.81;100.00
3590;BME280;1809;48.470;9.226;2022-08-19T04:23:03;96442.25;;;17.79;100.00
3590;BME280;1809;48.470;9.226;2022-08-19T04:25:28;96440.78;;;17.81;100.00
3590;BME280;1809;48.470;9.226;2022-08-19T04:27:53;96448.19;;;17.84;100.00
3590;BME280;1809;48.470;9.226;2022-08-19T04:30:19;96450.03;;;17.80;100.00
3590;BME280;1809;48.470;9.226;2022-08-19T04:32:47;96453.97;;;17.83;100.00
3590;BME280;1809;48.470;9.226;2022-08-19T04:35:12;96453.63;;;17.84;100.00
3590;BME280;1809;48.470;9.226;2022-08-19T04:37:38;96449.78;;;17.85;100.00
3590;BME280;1809;48.470;9.226;2022-08-19T04:40:06;96453.38;;;17.89;100.00
3590;BME280;1809;48.470;9.226;2022-08-19T04:42:50;96454.06;;;17.86;100.00
3590;BME280;1809;48.470;9.226;2022-08-19T04:45:15;96452.06;;;17.83;100.00
3590;BME280;1809;48.470;9.226;2022-08-19T04:47:42;96450.47;;;17.82;100.00
3590;BME280;1809;48.470;9.226;2022-08-19T04:50:10;96448.47;;;17.79;100.00
3590;BME280;1809;48.470;9.226;2022-08-19T04:52:36;96459.28;;;17.79;100.00
3590;BME280;1809;48.470;9.226;2022-08-19T04:55:02;96453.09;;;17.79;100.00
3590;BME280;1809;48.470;9.226;2022-08-19T04:57:28;96469.91;;;17.72;100.00
3590;BME280;1809;48.470;9.226;2022-08-19T04:59:55;96470.69;;;17.72;100.00
3590;BME280;1809;48.470;9.226;2022-08-19T05:02:20;96482.41;;;17.77;100.00
3590;BME280;1809;48.470;9.226;2022-08-19T05:04:51;96484.94;;;17.85;100.00
3590;BME280;1809;48.470;9.226;2022-08-19T05:07:16;96484.84;;;17.82;100.00
3590;BME280;1809;48.470;9.226;2022-08-19T05:09:41;96489.47;;;17.81;100.00
3590;BME280;1809;48.470;9.226;2022-08-19T05:12:07;96501.88;;;17.82;100.00
3590;BME280;1809;48.470;9.226;2022-08-19T05:14:33;96512.69;;;17.82;100.00
3590;BME280;1809;48.470;9.226;2022-08-19T05:17:00;96521.25;;;17.84;100.00
3590;BME280;1809;48.470;9.226;2022-08-19T05:19:25;96527.56;;;17.88;100.00
3590;BME280;1809;48.470;9.226;2022-08-19T05:22:09;96539.91;;;18.01;100.00
3590;BME280;1809;48.470;9.226;2022-08-19T05:24:53;96535.50;;;17.97;100.00
3590;BME280;1809;48.470;9.226;2022-08-19T05:27:19;96541.91;;;18.04;100.00
3590;BME280;1809;48.470;9.226;2022-08-19T05:29:44;96534.75;;;17.96;100.00
3590;BME280;1809;48.470;9.226;2022-08-19T05:32:09;96537.28;;;18.05;100.00
3590;BME280;1809;48.470;9.226;2022-08-19T05:34:36;96533.09;;;18.07;100.00
3590;BME280;1809;48.470;9.226;2022-08-19T05:37:04;96546.22;;;18.05;100.00
3590;BME280;1809;48.470;9.226;2022-08-19T05:39:32;96540.69;;;18.02;100.00
3590;BME280;1809;48.470;9.226;2022-08-19T05:42:00;96543.94;;;18.07;100.00
3590;BME280;1809;48.470;9.226;2022-08-19T05:44:29;96549.88;;;18.13;100.00
3590;BME280;1809;48.470;9.226;2022-08-19T05:46:57;96542.28;;;18.18;100.00
3590;BME280;1809;48.470;9.226;2022-08-19T05:49:24;96539.94;;;18.17;100.00
3590;BME280;1809;48.470;9.226;2022-08-19T05:51:51;96542.75;;;18.20;100.00
3590;BME280;1809;48.470;9.226;2022-08-19T05:54:17;96536.63;;;18.23;100.00
3590;BME280;1809;48.470;9.226;2022-08-19T05:56:43;96541.09;;;18.32;100.00
3590;BME280;1809;48.470;9.226;2022-08-19T05:59:10;96538.94;;;18.09;100.00
3590;BME280;1809;48.470;9.226;2022-08-19T06:01:42;96538.25;;;18.12;100.00
3590;BME280;1809;48.470;9.226;2022-08-19T06:04:07;96545.25;;;18.13;100.00
3590;BME280;1809;48.470;9.226;2022-08-19T06:06:34;96553.09;;;18.18;100.00
3590;BME280;1809;48.470;9.226;2022-08-19T06:09:04;96546.63;;;18.07;100.00
3590;BME280;1809;48.470;9.226;2022-08-19T06:11:38;96549.97;;;18.16;100.00
3590;BME280;1809;48.470;9.226;2022-08-19T06:14:08;96540.03;;;18.20;100.00
3590;BME280;1809;48.470;9.226;2022-08-19T06:16:39;96547.78;;;18.22;100.00
3590;BME280;1809;48.470;9.226;2022-08-19T06:19:07;96541.53;;;18.34;100.00
3590;BME280;1809;48.470;9.226;2022-08-19T06:21:35;96547.88;;;18.25;100.00
3590;BME280;1809;48.470;9.226;2022-08-19T06:24:03;96543.97;;;18.23;100.00
3590;BME280;1809;48.470;9.226;2022-08-19T06:26:30;96544.56;;;18.16;100.00
3590;BME280;1809;48.470;9.226;2022-08-19T06:28:56;96548.50;;;18.19;100.00
3590;BME280;1809;48.470;9.226;2022-08-19T06:31:27;96549.00;;;18.24;100.00
3590;BME280;1809;48.470;9.226;2022-08-19T06:33:53;96541.78;;;18.28;100.00
3590;BME280;1809;48.470;9.226;2022-08-19T06:36:26;96546.25;;;18.37;100.00
3590;BME280;1809;48.470;9.226;2022-08-19T06:38:53;96545.00;;;18.34;100.00
3590;BME280;1809;48.470;9.226;2022-08-19T06:41:19;96551.91;;;18.32;100.00
3590;BME280;1809;48.470;9.226;2022-08-19T06:43:44;96557.34;;;18.32;100.00
3590;BME280;1809;48.470;9.226;2022-08-19T06:46:12;96549.81;;;18.41;100.00
3590;BME280;1809;48.470;9.226;2022-08-19T06:48:38;96554.91;;;18.42;100.00
3590;BME280;1809;48.470;9.226;2022-08-19T06:51:03;96555.09;;;18.34;100.00
3590;BME280;1809;48.470;9.226;2022-08-19T06:53:30;96560.56;;;18.37;100.00
3590;BME280;1809;48.470;9.226;2022-08-19T06:55:55;96560.72;;;18.28;100.00
3590;BME280;1809;48.470;9.226;2022-08-19T06:58:25;96554.50;;;18.12;100.00
3590;BME280;1809;48.470;9.226;2022-08-19T07:00:51;96554.50;;;18.12;100.00
3590;BME280;1809;48.470;9.226;2022-08-19T07:03:16;96553.63;;;18.08;100.00
3590;BME280;1809;48.470;9.226;2022-08-19T07:05:45;96558.16;;;18.04;100.00
3590;BME280;1809;48.470;9.226;2022-08-19T07:08:10;96570.25;;;17.95;100.00
3590;BME280;1809;48.470;9.226;2022-08-19T07:10:36;96560.22;;;17.95;100.00
3590;BME280;1809;48.470;9.226;2022-08-19T07:13:02;96565.63;;;17.95;100.00
3590;BME280;1809;48.470;9.226;2022-08-19T07:15:28;96561.13;;;17.99;100.00
3590;BME280;1809;48.470;9.226;2022-08-19T07:17:54;96566.31;;;17.92;100.00
3590;BME280;1809;48.470;9.226;2022-08-19T07:20:20;96566.31;;;17.92;100.00
3590;BME280;1809;48.470;9.226;2022-08-19T07:22:45;96569.34;;;17.91;100.00
3590;BME280;1809;48.470;9.226;2022-08-19T07:25:11;96558.41;;;17.99;100.00
3590;BME280;1809;48.470;9.226;2022-08-19T07:27:38;96559.53;;;17.98;100.00
3590;BME280;1809;48.470;9.226;2022-08-19T07:30:03;96562.66;;;18.00;100.00
3590;BME280;1809;48.470;9.226;2022-08-19T07:32:30;96567.66;;;17.98;100.00
3590;BME280;1809;48.470;9.226;2022-08-19T07:34:56;96563.81;;;17.99;100.00
3590;BME280;1809;48.470;9.226;2022-08-19T07:37:21;96577.16;;;17.92;100.00
3590;BME280;1809;48.470;9.226;2022-08-19T07:39:47;96574.97;;;17.98;100.00
3590;BME280;1809;48.470;9.226;2022-08-19T07:42:12;96567.41;;;18.03;100.00
3590;BME280;1809;48.470;9.226;2022-08-19T07:44:39;96566.84;;;17.98;100.00
3590;BME280;1809;48.470;9.226;2022-08-19T07:47:05;96571.25;;;18.02;100.00
3590;BME280;1809;48.470;9.226;2022-08-19T07:49:32;96564.94;;;17.98;100.00
3590;BME280;1809;48.470;9.226;2022-08-19T07:52:00;96561.13;;;17.99;100.00
3590;BME280;1809;48.470;9.226;2022-08-19T07:54:29;96580.88;;;17.88;100.00
3590;BME280;1809;48.470;9.226;2022-08-19T07:56:55;96577.47;;;17.91;100.00
3590;BME280;1809;48.470;9.226;2022-08-19T07:59:22;96579.38;;;17.90;100.00
3590;BME280;1809;48.470;9.226;2022-08-19T08:01:48;96574.19;;;17.97;100.00
3590;BME280;1809;48.470;9.226;2022-08-19T08:04:15;96588.88;;;17.96;100.00
3590;BME280;1809;48.470;9.226;2022-08-19T08:06:59;96585.25;;;17.92;100.00
3590;BME280;1809;48.470;9.226;2022-08-19T08:09:43;96582.34;;;17.85;100.00
3590;BME280;1809;48.470;9.226;2022-08-19T08:12:21;96591.69;;;17.88;100.00
3590;BME280;1809;48.470;9.226;2022-08-19T08:14:51;96589.34;;;17.86;100.00
3590;BME280;1809;48.470;9.226;2022-08-19T08:17:19;96586.88;;;17.81;100.00
3590;BME280;1809;48.470;9.226;2022-08-19T08:19:46;96590.13;;;17.87;100.00
3590;BME280;1809;48.470;9.226;2022-08-19T08:22:15;96592.38;;;17.85;100.00
3590;BME280;1809;48.470;9.226;2022-08-19T08:25:08;96591.78;;;17.91;100.00
3590;BME280;1809;48.470;9.226;2022-08-19T08:27:38;96587.50;;;17.90;100.00
3590;BME280;1809;48.470;9.226;2022-08-19T08:30:06;96580.28;;;17.94;100.00
3590;BME280;1809;48.470;9.226;2022-08-19T08:32:35;96590.41;;;17.97;100.00
3590;BME280;1809;48.470;9.226;2022-08-19T08:35:00;96592.69;;;17.95;100.00
3590;BME280;1809;48.470;9.226;2022-08-19T08:37:26;96595.41;;;17.95;100.00
3590;BME280;1809;48.470;9.226;2022-08-19T08:39:51;96597.22;;;17.91;100.00
3590;BME280;1809;48.470;9.226;2022-08-19T08:42:24;96595.28;;;17.92;100.00
3590;BME280;1809;48.470;9.226;2022-08-19T08:45:03;96600.56;;;18.00;100.00
3590;BME280;1809;48.470;9.226;2022-08-19T08:47:36;96593.50;;;17.96;100.00
3590;BME280;1809;48.470;9.226;2022-08-19T08:50:07;96602.81;;;17.98;100.00
3590;BME280;1809;48.470;9.226;2022-08-19T08:52:40;96602.16;;;18.01;100.00
3590;BME280;1809;48.470;9.226;2022-08-19T08:55:15;96599.13;;;17.91;100.00
3590;BME280;1809;48.470;9.226;2022-08-19T08:57:52;96604.09;;;17.89;100.00
3590;BME280;1809;48.470;9.226;2022-08-19T09:00:37;96604.63;;;17.94;100.00
3590;BME280;1809;48.470;9.226;2022-08-19T09:03:06;96604.09;;;17.89;100.00
3590;BME280;1809;48.470;9.226;2022-08-19T09:05:58;96607.13;;;17.87;100.00
3590;BME280;1809;48.470;9.226;2022-08-19T09:08:45;96611.00;;;17.86;100.00
3590;BME280;1809;48.470;9.226;2022-08-19T09:11:23;96608.63;;;17.85;100.00
3590;BME280;1809;48.470;9.226;2022-08-19T09:16:25;96609.31;;;17.82;100.00
3590;BME280;1809;48.470;9.226;2022-08-19T09:18:56;96610.88;;;17.83;100.00
3590;BME280;1809;48.470;9.226;2022-08-19T09:21:24;96606.16;;;17.80;100.00
3590;BME280;1809;48.470;9.226;2022-08-19T09:23:51;96619.31;;;17.81;100.00
3590;BME280;1809;48.470;9.226;2022-08-19T09:26:19;96615.59;;;17.86;100.00
3590;BME280;1809;48.470;9.226;2022-08-19T09:28:50;96625.06;;;17.92;100.00
3590;BME280;1809;48.470;9.226;2022-08-19T09:31:23;96622.78;;;17.94;100.00
3590;BME280;1809;48.470;9.226;2022-08-19T09:33:50;96619.75;;;17.95;100.00
3590;BME280;1809;48.470;9.226;2022-08-19T09:36:17;96623.38;;;17.87;100.00
3590;BME280;1809;48.470;9.226;2022-08-19T09:38:44;96628.03;;;17.87;100.00
3590;BME280;1809;48.470;9.226;2022-08-19T09:41:17;96622.50;;;17.83;100.00
3590;BME280;1809;48.470;9.226;2022-08-19T09:43:48;96626.75;;;17.84;100.00
3590;BME280;1809;48.470;9.226;2022-08-19T09:46:14;96620.34;;;17.89;100.00
3590;BME280;1809;48.470;9.226;2022-08-19T09:48:41;96626.53;;;17.89;100.00
3590;BME280;1809;48.470;9.226;2022-08-19T09:51:08;96629.94;;;17.86;100.00
3590;BME280;1809;48.470;9.226;2022-08-19T09:53:35;96641.19;;;17.88;100.00
3590;BME280;1809;48.470;9.226;2022-08-19T09:56:01;96632.16;;;17.96;100.00
3590;BME280;1809;48.470;9.226;2022-08-19T09:58:26;96637.78;;;17.91;100.00
3590;BME280;1809;48.470;9.226;2022-08-19T10:00:57;96638.91;;;17.90;100.00
3590;BME280;1809;48.470;9.226;2022-08-19T10:03:23;96640.97;;;17.93;100.00
3590;BME280;1809;48.470;9.226;2022-08-19T10:05:49;96643.66;;;17.93;100.00
3590;BME280;1809;48.470;9.226;2022-08-19T10:08:20;96644.09;;;17.95;100.00
3590;BME280;1809;48.470;9.226;2022-08-19T10:10:48;96641.41;;;17.95;100.00
3590;BME280;1809;48.470;9.226;2022-08-19T10:13:15;96639.81;;;17.94;100.00
3590;BME280;1809;48.470;9.226;2022-08-19T10:15:42;96649.75;;;17.90;100.00
3590;BME280;1809;48.470;9.226;2022-08-19T10:18:08;96650.41;;;17.87;100.00
3590;BME280;1809;48.470;9.226;2022-08-19T10:20:33;96647.72;;;17.87;100.00
3590;BME280;1809;48.470;9.226;2022-08-19T10:23:01;96647.72;;;17.87;100.00
3590;BME280;1809;48.470;9.226;2022-08-19T10:25:26;96641.03;;;17.97;100.00
3590;BME280;1809;48.470;9.226;2022-08-19T10:27:52;96642.19;;;17.96;100.00
3590;BME280;1809;48.470;9.226;2022-08-19T10:30:18;96644.31;;;17.90;100.00
3590;BME280;1809;48.470;9.226;2022-08-19T10:32:44;96649.75;;;17.90;100.00
3590;BME280;1809;48.470;9.226;2022-08-19T10:35:11;96648.63;;;17.91;100.00
3590;BME280;1809;48.470;9.226;2022-08-19T10:37:37;96642.09;;;17.92;100.00
3590;BME280;1809;48.470;9.226;2022-08-19T10:40:06;96639.81;;;17.94;100.00
3590;BME280;1809;48.470;9.226;2022-08-19T10:42:32;96642.09;;;17.92;100.00
3590;BME280;1809;48.470;9.226;2022-08-19T10:44:57;96647.50;;;17.92;100.00
3590;BME280;1809;48.470;9.226;2022-08-19T10:47:22;96641.97;;;17.89;100.00
3590;BME280;1809;48.470;9.226;2022-08-19T10:49:52;96652.91;;;17.92;100.00
3590;BME280;1809;48.470;9.226;2022-08-19T10:52:36;96635.63;;;17.97;100.00
3590;BME280;1809;48.470;9.226;2022-08-19T10:55:06;96643.06;;;18.00;100.00
3590;BME280;1809;48.470;9.226;2022-08-19T10:57:50;96640.59;;;17.95;100.00
3590;BME280;1809;48.470;9.226;2022-08-19T11:00:15;96646.81;;;17.95;100.00
3590;BME280;1809;48.470;9.226;2022-08-19T11:02:41;96645.00;;;17.87;100.00
3590;BME280;1809;48.470;9.226;2022-08-19T11:05:07;96644.44;;;17.94;100.00
3590;BME280;1809;48.470;9.226;2022-08-19T11:07:36;96639.13;;;17.97;100.00
3590;BME280;1809;48.470;9.226;2022-08-19T11:10:03;96635.31;;;17.98;100.00
3590;BME280;1809;48.470;9.226;2022-08-19T11:12:28;96645.34;;;17.98;100.00
3590;BME280;1809;48.470;9.226;2022-08-19T11:14:53;96645.47;;;17.89;100.00
3590;BME280;1809;48.470;9.226;2022-08-19T11:17:19;96641.84;;;17.97;100.00
3590;BME280;1809;48.470;9.226;2022-08-19T11:19:45;96642.09;;;17.92;100.00
3590;BME280;1809;48.470;9.226;2022-08-19T11:22:12;96642.53;;;17.94;100.00
3590;BME280;1809;48.470;9.226;2022-08-19T11:24:37;96650.41;;;17.99;100.00
3590;BME280;1809;48.470;9.226;2022-08-19T11:27:06;96641.19;;;17.88;100.00
3590;BME280;1809;48.470;9.226;2022-08-19T11:29:33;96654.38;;;17.90;100.00
3590;BME280;1809;48.470;9.226;2022-08-19T11:31:59;96640.50;;;17.91;100.00
3590;BME280;1809;48.470;9.226;2022-08-19T11:34:27;96647.25;;;17.97;100.00
3590;BME280;1809;48.470;9.226;2022-08-19T11:36:54;96646.53;;;18.12;100.00
3590;BME280;1809;48.470;9.226;2022-08-19T11:39:23;96657.16;;;18.05;100.00
3590;BME280;1809;48.470;9.226;2022-08-19T11:41:49;96652.44;;;18.02;100.00
3590;BME280;1809;48.470;9.226;2022-08-19T11:44:15;96651.84;;;18.09;100.00
3590;BME280;1809;48.470;9.226;2022-08-19T11:46:42;96649.19;;;18.24;100.00
3590;BME280;1809;48.470;9.226;2022-08-19T11:49:11;96654.16;;;18.22;100.00
3590;BME280;1809;48.470;9.226;2022-08-19T11:51:37;96655.50;;;18.28;100.00
3590;BME280;1809;48.470;9.226;2022-08-19T11:54:04;96642.50;;;18.34;100.00
3590;BME280;1809;48.470;9.226;2022-08-19T11:56:30;96647.22;;;18.37;100.00
3590;BME280;1809;48.470;9.226;2022-08-19T11:58:57;96651.75;;;18.33;100.00
3590;BME280;1809;48.470;9.226;2022-08-19T12:01:24;96649.59;;;18.39;100.00
3590;BME280;1809;48.470;9.226;2022-08-19T12:03:52;96652.72;;;18.41;100.00
3590;BME280;1809;48.470;9.226;2022-08-19T12:06:27;96650.22;;;18.48;100.00
3590;BME280;1809;48.470;9.226;2022-08-19T12:09:04;96653.63;;;18.45;100.00
3590;BME280;1809;48.470;9.226;2022-08-19T12:11:30;96643.59;;;18.45;100.00
3590;BME280;1809;48.470;9.226;2022-08-19T12:13:56;96644.38;;;18.46;100.00
3590;BME280;1809;48.470;9.226;2022-08-19T12:16:25;96649.22;;;18.52;100.00
3590;BME280;1809;48.470;9.226;2022-08-19T12:18:51;96642.78;;;18.45;100.00
3590;BME280;1809;48.470;9.226;2022-08-19T12:21:20;96650.59;;;18.46;100.00
3590;BME280;1809;48.470;9.226;2022-08-19T12:23:50;96644.28;;;18.42;100.00
3590;BME280;1809;48.470;9.226;2022-08-19T12:26:16;96646.09;;;18.38;100.00
3590;BME280;1809;48.470;9.226;2022-08-19T12:28:42;96641.03;;;18.37;100.00
3590;BME280;1809;48.470;9.226;2022-08-19T12:31:08;96645.28;;;18.38;100.00
3590;BME280;1809;48.470;9.226;2022-08-19T12:33:33;96650.47;;;18.43;100.00
3590;BME280;1809;48.470;9.226;2022-08-19T12:36:04;96647.31;;;18.41;100.00
3590;BME280;1809;48.470;9.226;2022-08-19T12:38:31;96647.31;;;18.41;100.00
3590;BME280;1809;48.470;9.226;2022-08-19T12:40:57;96639.38;;;18.48;100.00
3590;BME280;1809;48.470;9.226;2022-08-19T12:43:22;96636.13;;;18.54;100.00
3590;BME280;1809;48.470;9.226;2022-08-19T12:45:48;96636.22;;;18.58;100.00
3590;BME280;1809;48.470;9.226;2022-08-19T12:48:13;96636.56;;;18.72;100.00
3590;BME280;1809;48.470;9.226;2022-08-19T12:50:44;96631.63;;;18.74;100.00
3590;BME280;1809;48.470;9.226;2022-08-19T12:53:13;96629.41;;;18.64;100.00
3590;BME280;1809;48.470;9.226;2022-08-19T12:55:39;96634.81;;;18.64;100.00
3590;BME280;1809;48.470;9.226;2022-08-19T12:58:05;96634.13;;;18.67;100.00
3590;BME280;1809;48.470;9.226;2022-08-19T13:00:30;96635.06;;;18.59;100.00
3590;BME280;1809;48.470;9.226;2022-08-19T13:02:58;96646.09;;;18.66;100.00
3590;BME280;1809;48.470;9.226;2022-08-19T13:05:26;96640.44;;;18.71;100.00
3590;BME280;1809;48.470;9.226;2022-08-19T13:07:53;96643.91;;;18.71;100.00
3590;BME280;1809;48.470;9.226;2022-08-19T13:10:24;96649.72;;;18.86;100.00
3590;BME280;1809;48.470;9.226;2022-08-19T13:12:51;96654.78;;;18.87;100.00
3590;BME280;1809;48.470;9.226;2022-08-19T13:15:18;96652.94;;;18.91;100.00
3590;BME280;1809;48.470;9.226;2022-08-19T13:17:45;96661.16;;;18.95;100.00